createdAt,value
2023-03-28T00:03:43.822Z,0.54
2023-03-28T00:07:43.882Z,0.54
2023-03-28T00:11:43.831Z,0.51
2023-03-28T00:15:44.123Z,0.52
2023-03-28T00:19:43.936Z,0.54
2023-03-28T00:23:44.070Z,0.52
2023-03-28T00:27:44.024Z,0.54
2023-03-28T00:31:44.120Z,0.54
2023-03-28T00:35:44.170Z,0.52
2023-03-28T00:39:45.000Z,0.53
2023-03-28T00:43:44.238Z,0.55
2023-03-28T00:47:44.310Z,0.55
2023-03-28T00:51:44.567Z,0.53
2023-03-28T00:55:44.408Z,0.54
2023-03-28T00:59:44.598Z,0.53
2023-03-28T01:03:44.664Z,0.54
2023-03-28T01:07:44.682Z,0.55
2023-03-28T01:11:45.083Z,0.54
2023-03-28T01:15:44.801Z,0.54
2023-03-28T01:19:45.097Z,0.53
2023-03-28T01:23:45.055Z,0.54
2023-03-28T01:27:44.944Z,0.54
2023-03-28T01:31:45.115Z,0.54
2023-03-28T01:35:45.605Z,0.52
2023-03-28T01:39:45.182Z,0.54
2023-03-28T01:43:45.615Z,0.53
2023-03-28T01:47:45.305Z,0.52
2023-03-28T01:51:45.582Z,0.54
2023-03-28T01:55:45.577Z,0.51
2023-03-28T01:59:45.419Z,0.54
2023-03-28T02:03:45.499Z,0.51
2023-03-28T02:07:45.559Z,0.56
2023-03-28T02:11:46.102Z,0.53
2023-03-28T02:15:46.097Z,0.51
2023-03-28T02:19:45.758Z,0.53
2023-03-28T02:23:45.813Z,0.55
2023-03-28T02:27:45.898Z,0.53
2023-03-28T02:31:46.156Z,0.57
2023-03-28T02:35:46.161Z,0.54
2023-03-28T02:39:46.125Z,0.55
2023-03-28T02:43:46.256Z,0.52
2023-03-28T02:47:46.664Z,0.53
2023-03-28T02:51:46.631Z,0.54
2023-03-28T02:55:46.635Z,0.53
2023-03-28T02:59:47.135Z,0.52
2023-03-28T03:03:46.857Z,0.52
2023-03-28T03:07:47.136Z,0.53
2023-03-28T03:11:47.141Z,0.53
2023-03-28T03:15:47.137Z,0.53
2023-03-28T03:19:47.208Z,0.52
2023-03-28T03:23:47.294Z,0.52
2023-03-28T03:27:47.634Z,0.54
2023-03-28T03:31:47.515Z,0.52
2023-03-28T03:35:47.653Z,0.52
2023-03-28T03:39:47.718Z,0.53
2023-03-28T03:43:48.125Z,0.54
2023-03-28T03:47:48.196Z,0.52
2023-03-28T03:51:48.139Z,0.53
2023-03-28T03:56:48.919Z,0.50
2023-03-28T04:00:48.916Z,0.52
2023-03-28T04:04:49.022Z,0.52
2023-03-28T04:08:49.206Z,0.50
2023-03-28T04:12:49.887Z,0.52
2023-03-28T04:16:49.402Z,0.53
2023-03-28T04:20:49.869Z,0.53
2023-03-28T04:24:49.326Z,0.53
2023-03-28T04:28:49.396Z,0.51
2023-03-28T04:32:49.433Z,0.54
2023-03-28T04:36:49.379Z,0.53
2023-03-28T04:40:49.157Z,0.54
2023-03-28T04:44:49.382Z,0.53
2023-03-28T04:48:49.395Z,0.54
2023-03-28T04:52:50.381Z,0.53
2023-03-28T04:56:49.505Z,0.52
2023-03-28T05:00:49.474Z,0.53
2023-03-28T05:04:49.881Z,0.53
2023-03-28T05:08:49.445Z,0.55
2023-03-28T05:12:49.862Z,0.56
2023-03-28T05:16:49.427Z,0.57
2023-03-28T05:20:49.287Z,0.57
2023-03-28T05:24:49.402Z,0.58
2023-03-28T05:28:49.392Z,0.58
2023-03-28T05:32:49.420Z,0.55
2023-03-28T05:36:49.395Z,0.55
2023-03-28T05:40:49.418Z,0.56
2023-03-28T05:44:49.898Z,0.58
2023-03-28T05:48:49.913Z,0.59
2023-03-28T05:52:49.866Z,0.64
2023-03-28T05:56:50.384Z,0.86
2023-03-28T06:00:50.105Z,1.00
2023-03-28T06:04:50.397Z,1.21
2023-03-28T06:08:50.900Z,1.44
2023-03-28T06:12:50.894Z,1.70
2023-03-28T06:16:50.718Z,1.80
2023-03-28T06:20:50.888Z,1.87
2023-03-28T06:24:50.890Z,2.03
2023-03-28T06:28:50.886Z,2.29
2023-03-28T06:32:50.976Z,2.48
2023-03-28T06:36:50.945Z,2.69
2023-03-28T06:40:51.435Z,2.78
2023-03-28T06:44:51.402Z,2.94
2023-03-28T06:48:51.426Z,3.09
2023-03-28T06:52:51.410Z,2.79
2023-03-28T07:01:10.146Z,0.50
2023-03-28T07:05:10.312Z,0.50
2023-03-28T07:09:10.408Z,0.50
2023-03-28T07:13:10.428Z,0.50
2023-03-28T07:17:10.512Z,0.51
2023-03-28T07:21:10.726Z,0.51
2023-03-28T07:25:10.759Z,0.51
2023-03-28T07:29:10.750Z,0.51
2023-03-28T07:33:18.354Z,0.53
2023-03-28T07:37:11.774Z,0.50
2023-03-28T07:41:10.846Z,0.51
2023-03-28T07:45:10.859Z,0.51
2023-03-28T07:49:11.138Z,0.36
2023-03-28T07:53:10.877Z,0.61
2023-03-28T07:57:11.000Z,0.67
2023-03-28T08:01:11.375Z,0.68
2023-03-28T08:05:11.781Z,0.74
2023-03-28T08:09:11.380Z,0.75
2023-03-28T08:13:11.043Z,0.76
2023-03-28T08:17:11.347Z,0.79
2023-03-28T08:21:11.809Z,0.82
2023-03-28T08:25:11.861Z,0.85
2023-03-28T08:29:12.055Z,0.87
2023-03-28T08:33:11.749Z,0.82
2023-03-28T08:37:12.416Z,0.89
2023-03-28T08:41:12.999Z,0.89
2023-03-28T08:45:14.635Z,1.00
2023-03-28T08:49:12.396Z,1.22
2023-03-28T08:53:12.228Z,1.58
2023-03-28T08:57:12.176Z,1.77
2023-03-28T09:01:12.352Z,2.14
2023-03-28T09:05:22.520Z,0.34
2023-03-28T09:09:13.533Z,0.37
2023-03-28T09:13:12.045Z,0.74
2023-03-28T09:17:12.378Z,0.99
2023-03-28T09:21:12.353Z,1.24
2023-03-28T09:25:13.733Z,1.41
2023-03-28T09:29:12.586Z,1.49
2023-03-28T09:33:13.103Z,1.67
2023-03-28T09:37:12.949Z,1.81
2023-03-28T09:41:13.000Z,1.94
2023-03-28T09:45:13.425Z,2.08
2023-03-28T09:49:13.040Z,1.28
2023-03-28T09:53:13.423Z,1.53
2023-03-28T09:57:13.217Z,1.82
2023-03-28T10:01:13.426Z,1.85
2023-03-28T10:05:13.464Z,1.96
2023-03-28T10:09:13.367Z,2.09
2023-03-28T10:13:13.360Z,2.22
2023-03-28T10:17:13.505Z,2.30
2023-03-28T10:21:13.495Z,2.44
2023-03-28T10:25:13.242Z,2.53
2023-03-28T10:29:13.210Z,2.63
2023-03-28T10:33:13.924Z,2.70
2023-03-28T10:37:13.136Z,2.70
2023-03-28T10:41:13.202Z,2.07
2023-03-28T10:45:13.081Z,1.35
2023-03-28T10:49:12.997Z,0.92
2023-03-28T10:53:12.953Z,1.57
2023-03-28T10:57:13.053Z,1.74
2023-03-28T11:01:12.918Z,2.03
2023-03-28T11:05:12.907Z,2.32
2023-03-28T11:09:13.032Z,2.53
2023-03-28T11:13:13.187Z,2.68
2023-03-28T11:17:13.297Z,2.87
2023-03-28T11:21:13.469Z,2.90
2023-03-28T11:25:13.478Z,3.17
2023-03-28T11:29:13.522Z,3.32
2023-03-28T11:33:13.570Z,3.53
2023-03-28T11:37:13.612Z,2.16
2023-03-28T11:41:13.882Z,1.27
2023-03-28T11:45:13.933Z,2.17
2023-03-28T11:49:14.105Z,2.16
2023-03-28T11:53:14.272Z,1.93
2023-03-28T11:57:14.369Z,1.97
2023-03-28T12:01:14.516Z,1.93
2023-03-28T12:05:14.941Z,1.92
2023-03-28T12:09:14.715Z,1.86
2023-03-28T12:13:14.966Z,1.87
2023-03-28T12:17:15.030Z,1.82
2023-03-28T12:21:14.847Z,1.75
2023-03-28T12:25:15.004Z,1.71
2023-03-28T12:29:14.966Z,1.68
2023-03-28T12:33:15.089Z,1.58
2023-03-28T12:37:15.466Z,1.52
2023-03-28T12:41:14.971Z,1.48
2023-03-28T12:45:15.441Z,1.42
2023-03-28T12:49:15.454Z,1.41
2023-03-28T12:53:15.462Z,1.37
2023-03-28T12:57:21.087Z,1.29
2023-03-28T13:05:34.065Z,0.50
2023-03-28T13:09:33.784Z,0.51
2023-03-28T13:13:34.075Z,0.50
2023-03-28T13:17:33.919Z,0.51
2023-03-28T13:21:33.951Z,0.51
2023-03-28T13:25:34.028Z,0.51
2023-03-28T13:29:34.133Z,0.51
2023-03-28T13:33:34.584Z,0.50
2023-03-28T13:37:34.282Z,0.51
2023-03-28T13:41:34.574Z,0.51
2023-03-28T13:45:34.571Z,0.50
2023-03-28T13:49:34.594Z,0.51
2023-03-28T13:53:46.897Z,0.51
2023-03-28T13:57:35.693Z,0.51
2023-03-28T14:01:35.137Z,0.50
2023-03-28T14:05:35.097Z,0.52
2023-03-28T14:09:35.073Z,0.51
2023-03-28T14:13:35.110Z,0.51
2023-03-28T14:17:35.133Z,0.53
2023-03-28T14:21:35.576Z,0.50
2023-03-28T14:25:35.403Z,0.52
2023-03-28T14:29:35.590Z,0.51
2023-03-28T14:33:35.640Z,0.51
2023-03-28T14:37:35.644Z,0.50
2023-03-28T14:41:36.089Z,0.51
2023-03-28T14:45:36.190Z,0.50
2023-03-28T14:49:36.106Z,0.53
2023-03-28T14:53:36.104Z,0.51
2023-03-28T14:57:36.614Z,0.52
2023-03-28T15:01:36.661Z,0.52
2023-03-28T15:05:36.429Z,0.51
2023-03-28T15:09:36.612Z,0.51
2023-03-28T15:13:36.681Z,0.52
2023-03-28T15:17:37.095Z,0.51
2023-03-28T15:21:37.158Z,0.51
2023-03-28T15:25:36.970Z,0.52
2023-03-28T15:29:37.150Z,0.50
2023-03-28T15:33:37.197Z,0.51
2023-03-28T15:37:37.616Z,0.53
2023-03-28T15:41:37.461Z,0.53
2023-03-28T15:45:37.667Z,0.52
2023-03-28T15:49:38.189Z,0.51
2023-03-28T15:53:38.646Z,0.53
2023-03-28T15:57:38.175Z,0.53
2023-03-28T16:01:38.719Z,0.52
2023-03-28T16:05:38.632Z,0.52
2023-03-28T16:09:38.445Z,0.54
2023-03-28T16:13:38.564Z,0.52
2023-03-28T16:17:38.693Z,0.53
2023-03-28T16:21:39.141Z,0.53
2023-03-28T16:25:39.136Z,0.51
2023-03-28T16:29:39.136Z,0.52
2023-03-28T16:33:39.625Z,0.50
2023-03-28T16:37:39.613Z,0.54
2023-03-28T16:41:39.687Z,0.54
2023-03-28T16:45:40.148Z,0.51
2023-03-28T16:49:39.884Z,0.53
2023-03-28T16:53:40.142Z,0.51
2023-03-28T16:57:40.672Z,0.53
2023-03-28T17:01:40.689Z,0.51
2023-03-28T17:05:40.632Z,0.54
2023-03-28T17:09:40.644Z,0.53
2023-03-28T17:13:40.754Z,0.50
2023-03-28T17:17:41.152Z,0.52
2023-03-28T17:21:41.064Z,0.53
2023-03-28T17:25:53.825Z,0.52
2023-03-28T17:29:42.239Z,0.53
2023-03-28T17:33:41.667Z,0.53
2023-03-28T17:37:41.643Z,0.53
2023-03-28T17:41:42.150Z,0.55
2023-03-28T17:45:42.155Z,0.53
2023-03-28T17:49:42.129Z,0.51
2023-03-28T17:53:42.707Z,0.54
2023-03-28T17:57:42.477Z,0.52
2023-03-28T18:01:42.720Z,0.53
2023-03-28T18:05:42.811Z,0.52
2023-03-28T18:09:42.983Z,0.51
2023-03-28T18:13:43.166Z,0.50
2023-03-28T18:17:43.693Z,0.52
2023-03-28T18:21:43.669Z,0.52
2023-03-28T18:25:43.590Z,0.53
2023-03-28T18:29:44.158Z,0.53
2023-03-28T18:33:43.957Z,0.53
2023-03-28T18:37:44.200Z,0.55
2023-03-28T18:41:44.689Z,0.52
2023-03-28T18:45:44.455Z,0.53
2023-03-28T18:49:44.636Z,0.52
2023-03-28T18:53:45.212Z,0.53
2023-03-28T18:57:45.176Z,0.53
2023-03-28T19:01:45.307Z,0.51
2023-03-28T19:05:45.352Z,0.52
2023-03-28T19:09:45.702Z,0.53
2023-03-28T19:13:45.695Z,0.52
2023-03-28T19:17:46.271Z,0.51
2023-03-28T19:21:46.064Z,0.52
2023-03-28T19:25:46.668Z,0.54
2023-03-28T19:29:46.386Z,0.52
2023-03-28T19:33:46.699Z,0.55
2023-03-28T19:37:46.759Z,0.52
2023-03-28T19:41:46.984Z,0.52
2023-03-28T19:45:47.265Z,0.52
2023-03-28T19:49:47.703Z,0.51
2023-03-28T19:53:47.688Z,0.52
2023-03-28T19:57:47.674Z,0.52
2023-03-28T20:01:47.940Z,0.52
2023-03-28T20:05:48.224Z,0.52
2023-03-28T20:09:48.689Z,0.53
2023-03-28T20:13:48.452Z,0.51
2023-03-28T20:17:48.762Z,0.52
2023-03-28T20:21:48.808Z,0.53
2023-03-28T20:25:49.248Z,0.52
2023-03-28T20:29:49.199Z,0.52
2023-03-28T20:33:49.728Z,0.53
2023-03-28T20:37:49.550Z,0.51
2023-03-28T20:41:50.201Z,0.53
2023-03-28T20:45:50.232Z,0.52
2023-03-28T20:49:50.228Z,0.53
2023-03-28T20:53:50.745Z,0.52
2023-03-28T20:57:50.460Z,0.53
2023-03-28T21:01:50.710Z,0.55
2023-03-28T21:05:51.268Z,0.53
2023-03-28T21:09:51.003Z,0.55
2023-03-28T21:13:51.252Z,0.53
2023-03-28T21:17:51.363Z,0.54
2023-03-28T21:21:51.740Z,0.53
2023-03-28T21:25:51.708Z,0.53
2023-03-28T21:29:52.248Z,0.51
2023-03-28T21:33:52.106Z,0.53
2023-03-28T21:37:52.272Z,0.54
2023-03-28T21:41:52.733Z,0.53
2023-03-28T21:45:52.788Z,0.52
2023-03-28T21:49:53.234Z,0.51
2023-03-28T21:53:53.242Z,0.54
2023-03-28T21:57:53.243Z,0.55
2023-03-28T22:01:53.756Z,0.53
2023-03-28T22:05:53.719Z,0.54
2023-03-28T22:09:54.230Z,0.54
2023-03-28T22:13:53.937Z,0.53
2023-03-28T22:17:54.300Z,0.54
2023-03-28T22:21:54.757Z,0.51
2023-03-28T22:25:54.752Z,0.51
2023-03-28T22:29:54.746Z,0.52
2023-03-28T22:33:54.902Z,0.53
2023-03-28T22:37:55.114Z,0.50
2023-03-28T22:41:55.746Z,0.54
2023-03-28T22:45:55.753Z,0.55
2023-03-28T22:49:55.779Z,0.52
2023-03-28T22:53:55.823Z,0.54
2023-03-28T22:57:56.299Z,0.54
2023-03-28T23:01:56.345Z,0.51
2023-03-28T23:05:56.777Z,0.54
2023-03-28T23:09:56.762Z,0.52
2023-03-28T23:13:56.842Z,0.53
2023-03-28T23:17:57.329Z,0.53
2023-03-28T23:21:57.325Z,0.52
2023-03-28T23:25:57.768Z,0.53
2023-03-28T23:29:57.508Z,0.54
2023-03-28T23:33:57.652Z,0.54
2023-03-28T23:37:58.287Z,0.55
2023-03-28T23:41:58.296Z,0.53
2023-03-28T23:45:58.240Z,0.53
2023-03-28T23:49:58.404Z,0.54
2023-03-28T23:53:58.609Z,0.55
2023-03-28T23:57:59.288Z,0.52
